sensor_id;sensor_type;location;lat;lon;timestamp;P1;durP1;ratioP1;P2;durP2;ratioP2
73421;SDS011;61637;47.760;-122.022;2022-07-10T00:00:01;3.8;;;1.3;;
73421;SDS011;61637;47.760;-122.022;2022-07-10T00:02:00;3.1;;;1.2;;
73421;SDS011;61637;47.760;-122.022;2022-07-10T00:04:01;3.5;;;1.3;;
73421;SDS011;61637;47.760;-122.022;2022-07-10T00:06:00;3.4;;;1.4;;
73421;SDS011;61637;47.760;-122.022;2022-07-10T00:08:02;3.0;;;1.2;;
73421;SDS011;61637;47.760;-122.022;2022-07-10T00:10:00;3.0;;;1.2;;
73421;SDS011;61637;47.760;-122.022;2022-07-10T00:12:00;3.3;;;1.3;;
73421;SDS011;61637;47.760;-122.022;2022-07-10T00:14:01;3.9;;;1.2;;
73421;SDS011;61637;47.760;-122.022;2022-07-10T00:16:01;4.2;;;1.3;;
73421;SDS011;61637;47.760;-122.022;2022-07-10T00:18:00;3.5;;;1.3;;
73421;SDS011;61637;47.760;-122.022;2022-07-10T00:20:00;3.3;;;1.4;;
73421;SDS011;61637;47.760;-122.022;2022-07-10T00:22:00;3.8;;;1.5;;
73421;SDS011;61637;47.760;-122.022;2022-07-10T00:24:00;4.7;;;1.4;;
73421;SDS011;61637;47.760;-122.022;2022-07-10T00:26:00;4.2;;;1.3;;
73421;SDS011;61637;47.760;-122.022;2022-07-10T00:28:01;3.9;;;1.5;;
73421;SDS011;61637;47.760;-122.022;2022-07-10T00:30:02;4.5;;;1.5;;
73421;SDS011;61637;47.760;-122.022;2022-07-10T00:32:00;3.8;;;1.6;;
73421;SDS011;61637;47.760;-122.022;2022-07-10T00:34:00;5.5;;;1.8;;
73421;SDS011;61637;47.760;-122.022;2022-07-10T00:36:01;5.5;;;1.6;;
73421;SDS011;61637;47.760;-122.022;2022-07-10T00:38:00;5.0;;;1.6;;
73421;SDS011;61637;47.760;-122.022;2022-07-10T00:40:01;3.4;;;1.4;;
73421;SDS011;61637;47.760;-122.022;2022-07-10T00:42:09;6.2;;;1.4;;
73421;SDS011;61637;47.760;-122.022;2022-07-10T00:44:02;5.1;;;1.4;;
73421;SDS011;61637;47.760;-122.022;2022-07-10T00:46:00;3.9;;;1.3;;
73421;SDS011;61637;47.760;-122.022;2022-07-10T00:48:01;4.1;;;1.3;;
73421;SDS011;61637;47.760;-122.022;2022-07-10T00:50:01;7.1;;;2.3;;
73421;SDS011;61637;47.760;-122.022;2022-07-10T00:52:04;4.6;;;1.4;;
73421;SDS011;61637;47.760;-122.022;2022-07-10T00:54:01;3.9;;;1.2;;
73421;SDS011;61637;47.760;-122.022;2022-07-10T00:56:00;3.9;;;1.4;;
73421;SDS011;61637;47.760;-122.022;2022-07-10T00:58:01;5.7;;;1.3;;
73421;SDS011;61637;47.760;-122.022;2022-07-10T01:00:00;4.2;;;1.2;;
73421;SDS011;61637;47.760;-122.022;2022-07-10T01:02:02;3.9;;;1.2;;
73421;SDS011;61637;47.760;-122.022;2022-07-10T01:04:02;3.7;;;1.3;;
73421;SDS011;61637;47.760;-122.022;2022-07-10T01:06:00;3.6;;;1.2;;
73421;SDS011;61637;47.760;-122.022;2022-07-10T01:08:01;4.3;;;1.3;;
73421;SDS011;61637;47.760;-122.022;2022-07-10T01:10:01;4.0;;;1.3;;
73421;SDS011;61637;47.760;-122.022;2022-07-10T01:12:02;4.6;;;1.2;;
73421;SDS011;61637;47.760;-122.022;2022-07-10T01:14:01;3.7;;;1.2;;
73421;SDS011;61637;47.760;-122.022;2022-07-10T01:16:01;3.9;;;1.2;;
73421;SDS011;61637;47.760;-122.022;2022-07-10T01:18:01;4.9;;;1.2;;
73421;SDS011;61637;47.760;-122.022;2022-07-10T01:20:05;5.5;;;1.9;;
73421;SDS011;61637;47.760;-122.022;2022-07-10T01:22:01;6.4;;;2.1;;
73421;SDS011;61637;47.760;-122.022;2022-07-10T01:24:06;6.4;;;1.5;;
73421;SDS011;61637;47.760;-122.022;2022-07-10T01:26:00;7.8;;;1.3;;
73421;SDS011;61637;47.760;-122.022;2022-07-10T01:28:01;5.0;;;1.3;;
73421;SDS011;61637;47.760;-122.022;2022-07-10T01:30:00;4.3;;;1.2;;
73421;SDS011;61637;47.760;-122.022;2022-07-10T01:32:02;6.4;;;1.2;;
73421;SDS011;61637;47.760;-122.022;2022-07-10T01:34:02;3.4;;;1.2;;
73421;SDS011;61637;47.760;-122.022;2022-07-10T01:36:00;6.3;;;1.5;;
73421;SDS011;61637;47.760;-122.022;2022-07-10T01:38:00;4.0;;;1.2;;
73421;SDS011;61637;47.760;-122.022;2022-07-10T01:40:02;4.0;;;1.2;;
73421;SDS011;61637;47.760;-122.022;2022-07-10T01:42:01;3.7;;;1.1;;
73421;SDS011;61637;47.760;-122.022;2022-07-10T01:44:01;5.4;;;1.1;;
73421;SDS011;61637;47.760;-122.022;2022-07-10T01:46:00;5.3;;;1.3;;
73421;SDS011;61637;47.760;-122.022;2022-07-10T01:48:00;5.1;;;1.2;;
73421;SDS011;61637;47.760;-122.022;2022-07-10T01:50:01;3.1;;;1.1;;
73421;SDS011;61637;47.760;-122.022;2022-07-10T01:52:01;4.9;;;1.3;;
73421;SDS011;61637;47.760;-122.022;2022-07-10T01:54:00;3.6;;;1.2;;
73421;SDS011;61637;47.760;-122.022;2022-07-10T01:56:04;3.5;;;1.2;;
73421;SDS011;61637;47.760;-122.022;2022-07-10T01:58:00;3.7;;;1.2;;
73421;SDS011;61637;47.760;-122.022;2022-07-10T02:00:00;4.0;;;1.4;;
73421;SDS011;61637;47.760;-122.022;2022-07-10T02:02:00;3.5;;;1.3;;
73421;SDS011;61637;47.760;-122.022;2022-07-10T02:04:01;6.9;;;1.4;;
73421;SDS011;61637;47.760;-122.022;2022-07-10T02:06:01;5.9;;;1.6;;
73421;SDS011;61637;47.760;-122.022;2022-07-10T02:08:01;4.3;;;1.4;;
73421;SDS011;61637;47.760;-122.022;2022-07-10T02:10:00;4.3;;;1.4;;
73421;SDS011;61637;47.760;-122.022;2022-07-10T02:12:01;6.9;;;1.4;;
73421;SDS011;61637;47.760;-122.022;2022-07-10T02:14:00;4.2;;;1.3;;
73421;SDS011;61637;47.760;-122.022;2022-07-10T02:16:02;4.5;;;1.4;;
73421;SDS011;61637;47.760;-122.022;2022-07-10T02:18:00;6.4;;;1.4;;
73421;SDS011;61637;47.760;-122.022;2022-07-10T02:20:01;3.7;;;1.4;;
73421;SDS011;61637;47.760;-122.022;2022-07-10T02:22:01;4.0;;;1.3;;
73421;SDS011;61637;47.760;-122.022;2022-07-10T02:24:00;7.8;;;1.6;;
73421;SDS011;61637;47.760;-122.022;2022-07-10T02:26:01;8.8;;;1.7;;
73421;SDS011;61637;47.760;-122.022;2022-07-10T02:28:01;3.8;;;1.4;;
73421;SDS011;61637;47.760;-122.022;2022-07-10T02:30:01;4.9;;;1.4;;
73421;SDS011;61637;47.760;-122.022;2022-07-10T02:32:01;4.1;;;1.4;;
73421;SDS011;61637;47.760;-122.022;2022-07-10T02:34:01;4.3;;;1.3;;
73421;SDS011;61637;47.760;-122.022;2022-07-10T02:36:00;4.3;;;1.5;;
73421;SDS011;61637;47.760;-122.022;2022-07-10T02:38:00;5.8;;;1.6;;
73421;SDS011;61637;47.760;-122.022;2022-07-10T02:40:01;5.2;;;1.4;;
73421;SDS011;61637;47.760;-122.022;2022-07-10T02:42:00;5.9;;;1.7;;
73421;SDS011;61637;47.760;-122.022;2022-07-10T02:44:01;6.8;;;1.7;;
73421;SDS011;61637;47.760;-122.022;2022-07-10T02:46:00;5.2;;;1.6;;
73421;SDS011;61637;47.760;-122.022;2022-07-10T02:48:00;5.0;;;1.6;;
73421;SDS011;61637;47.760;-122.022;2022-07-10T02:50:01;4.1;;;1.4;;
73421;SDS011;61637;47.760;-122.022;2022-07-10T02:52:01;4.7;;;1.7;;
73421;SDS011;61637;47.760;-122.022;2022-07-10T02:54:00;5.1;;;1.4;;
73421;SDS011;61637;47.760;-122.022;2022-07-10T02:56:01;4.8;;;1.5;;
73421;SDS011;61637;47.760;-122.022;2022-07-10T02:58:00;4.3;;;1.4;;
73421;SDS011;61637;47.760;-122.022;2022-07-10T03:00:01;8.4;;;1.8;;
73421;SDS011;61637;47.760;-122.022;2022-07-10T03:02:00;4.9;;;1.6;;
73421;SDS011;61637;47.760;-122.022;2022-07-10T03:04:01;3.7;;;1.5;;
73421;SDS011;61637;47.760;-122.022;2022-07-10T03:06:00;4.8;;;1.5;;
73421;SDS011;61637;47.760;-122.022;2022-07-10T03:08:00;4.7;;;1.4;;
73421;SDS011;61637;47.760;-122.022;2022-07-10T03:10:01;5.7;;;1.5;;
73421;SDS011;61637;47.760;-122.022;2022-07-10T03:12:00;6.6;;;1.4;;
73421;SDS011;61637;47.760;-122.022;2022-07-10T03:14:01;4.5;;;1.4;;
73421;SDS011;61637;47.760;-122.022;2022-07-10T03:16:01;3.8;;;1.4;;
73421;SDS011;61637;47.760;-122.022;2022-07-10T03:18:01;4.4;;;1.3;;
73421;SDS011;61637;47.760;-122.022;2022-07-10T03:20:00;6.7;;;1.5;;
73421;SDS011;61637;47.760;-122.022;2022-07-10T03:22:00;4.2;;;1.3;;
73421;SDS011;61637;47.760;-122.022;2022-07-10T03:24:01;6.4;;;1.5;;
73421;SDS011;61637;47.760;-122.022;2022-07-10T03:26:00;6.2;;;1.6;;
73421;SDS011;61637;47.760;-122.022;2022-07-10T03:28:01;5.4;;;1.3;;
73421;SDS011;61637;47.760;-122.022;2022-07-10T03:30:01;4.7;;;1.3;;
73421;SDS011;61637;47.760;-122.022;2022-07-10T03:32:00;6.1;;;1.2;;
73421;SDS011;61637;47.760;-122.022;2022-07-10T03:34:00;4.2;;;1.4;;
73421;SDS011;61637;47.760;-122.022;2022-07-10T03:36:01;5.3;;;1.4;;
73421;SDS011;61637;47.760;-122.022;2022-07-10T03:38:01;4.6;;;1.4;;
73421;SDS011;61637;47.760;-122.022;2022-07-10T03:40:01;5.6;;;1.3;;
73421;SDS011;61637;47.760;-122.022;2022-07-10T03:42:01;9.5;;;1.3;;
73421;SDS011;61637;47.760;-122.022;2022-07-10T03:44:00;7.8;;;1.2;;
73421;SDS011;61637;47.760;-122.022;2022-07-10T03:46:01;4.1;;;1.2;;
73421;SDS011;61637;47.760;-122.022;2022-07-10T03:48:00;6.0;;;1.2;;
73421;SDS011;61637;47.760;-122.022;2022-07-10T03:50:01;5.4;;;1.2;;
73421;SDS011;61637;47.760;-122.022;2022-07-10T03:52:02;5.9;;;1.3;;
73421;SDS011;61637;47.760;-122.022;2022-07-10T03:54:01;6.4;;;1.5;;
73421;SDS011;61637;47.760;-122.022;2022-07-10T03:56:01;5.1;;;1.2;;
73421;SDS011;61637;47.760;-122.022;2022-07-10T03:58:00;7.7;;;1.4;;
73421;SDS011;61637;47.760;-122.022;2022-07-10T04:00:00;6.6;;;1.3;;
73421;SDS011;61637;47.760;-122.022;2022-07-10T04:02:01;3.8;;;1.1;;
73421;SDS011;61637;47.760;-122.022;2022-07-10T04:04:01;5.2;;;1.4;;
73421;SDS011;61637;47.760;-122.022;2022-07-10T04:06:00;3.6;;;1.3;;
73421;SDS011;61637;47.760;-122.022;2022-07-10T04:08:02;4.5;;;1.3;;
73421;SDS011;61637;47.760;-122.022;2022-07-10T04:10:01;4.9;;;1.2;;
73421;SDS011;61637;47.760;-122.022;2022-07-10T04:12:01;5.0;;;1.3;;
73421;SDS011;61637;47.760;-122.022;2022-07-10T04:14:01;5.9;;;1.3;;
73421;SDS011;61637;47.760;-122.022;2022-07-10T04:16:03;4.7;;;1.2;;
73421;SDS011;61637;47.760;-122.022;2022-07-10T04:18:00;5.7;;;1.2;;
73421;SDS011;61637;47.760;-122.022;2022-07-10T04:20:00;5.7;;;1.2;;
73421;SDS011;61637;47.760;-122.022;2022-07-10T04:22:00;5.3;;;1.5;;
73421;SDS011;61637;47.760;-122.022;2022-07-10T04:24:00;8.0;;;1.5;;
73421;SDS011;61637;47.760;-122.022;2022-07-10T04:26:01;6.1;;;1.5;;
73421;SDS011;61637;47.760;-122.022;2022-07-10T04:28:01;3.9;;;1.3;;
73421;SDS011;61637;47.760;-122.022;2022-07-10T04:30:01;3.4;;;1.3;;
73421;SDS011;61637;47.760;-122.022;2022-07-10T04:32:00;5.5;;;1.3;;
73421;SDS011;61637;47.760;-122.022;2022-07-10T04:34:01;6.8;;;1.3;;
73421;SDS011;61637;47.760;-122.022;2022-07-10T04:36:00;5.8;;;1.4;;
73421;SDS011;61637;47.760;-122.022;2022-07-10T04:38:00;6.4;;;1.4;;
73421;SDS011;61637;47.760;-122.022;2022-07-10T04:40:01;6.3;;;1.5;;
73421;SDS011;61637;47.760;-122.022;2022-07-10T04:42:01;7.4;;;1.5;;
73421;SDS011;61637;47.760;-122.022;2022-07-10T04:44:01;4.1;;;1.4;;
73421;SDS011;61637;47.760;-122.022;2022-07-10T04:46:01;4.3;;;1.4;;
73421;SDS011;61637;47.760;-122.022;2022-07-10T04:48:00;5.2;;;1.4;;
73421;SDS011;61637;47.760;-122.022;2022-07-10T04:50:00;5.3;;;1.6;;
73421;SDS011;61637;47.760;-122.022;2022-07-10T04:52:01;5.9;;;1.6;;
73421;SDS011;61637;47.760;-122.022;2022-07-10T04:54:00;4.5;;;1.6;;
73421;SDS011;61637;47.760;-122.022;2022-07-10T04:56:00;6.0;;;1.8;;
73421;SDS011;61637;47.760;-122.022;2022-07-10T04:58:01;5.3;;;1.7;;
73421;SDS011;61637;47.760;-122.022;2022-07-10T05:00:01;5.1;;;1.6;;
73421;SDS011;61637;47.760;-122.022;2022-07-10T05:02:00;6.5;;;1.7;;
73421;SDS011;61637;47.760;-122.022;2022-07-10T05:04:01;9.1;;;1.9;;
73421;SDS011;61637;47.760;-122.022;2022-07-10T05:06:00;5.3;;;1.8;;
73421;SDS011;61637;47.760;-122.022;2022-07-10T05:08:01;7.3;;;1.7;;
73421;SDS011;61637;47.760;-122.022;2022-07-10T05:10:01;6.3;;;1.8;;
73421;SDS011;61637;47.760;-122.022;2022-07-10T05:12:00;5.8;;;1.5;;
73421;SDS011;61637;47.760;-122.022;2022-07-10T05:14:01;5.8;;;1.5;;
73421;SDS011;61637;47.760;-122.022;2022-07-10T05:16:01;7.5;;;1.7;;
73421;SDS011;61637;47.760;-122.022;2022-07-10T05:18:01;6.0;;;1.6;;
73421;SDS011;61637;47.760;-122.022;2022-07-10T05:20:00;7.3;;;1.5;;
73421;SDS011;61637;47.760;-122.022;2022-07-10T05:22:00;4.9;;;1.6;;
73421;SDS011;61637;47.760;-122.022;2022-07-10T05:24:01;8.3;;;1.8;;
73421;SDS011;61637;47.760;-122.022;2022-07-10T05:26:00;6.1;;;1.7;;
73421;SDS011;61637;47.760;-122.022;2022-07-10T05:28:01;4.7;;;1.6;;
73421;SDS011;61637;47.760;-122.022;2022-07-10T05:30:00;6.6;;;1.8;;
73421;SDS011;61637;47.760;-122.022;2022-07-10T05:32:01;5.4;;;1.7;;
73421;SDS011;61637;47.760;-122.022;2022-07-10T05:34:00;6.5;;;1.8;;
73421;SDS011;61637;47.760;-122.022;2022-07-10T05:36:01;6.1;;;1.8;;
73421;SDS011;61637;47.760;-122.022;2022-07-10T05:38:00;7.3;;;1.9;;
73421;SDS011;61637;47.760;-122.022;2022-07-10T05:40:01;6.4;;;1.8;;
73421;SDS011;61637;47.760;-122.022;2022-07-10T05:42:00;7.2;;;1.7;;
73421;SDS011;61637;47.760;-122.022;2022-07-10T05:44:01;5.4;;;1.7;;
73421;SDS011;61637;47.760;-122.022;2022-07-10T05:46:00;5.4;;;1.7;;
73421;SDS011;61637;47.760;-122.022;2022-07-10T05:48:01;4.7;;;1.5;;
73421;SDS011;61637;47.760;-122.022;2022-07-10T05:50:01;5.5;;;1.8;;
73421;SDS011;61637;47.760;-122.022;2022-07-10T05:52:01;6.3;;;1.7;;
73421;SDS011;61637;47.760;-122.022;2022-07-10T05:54:00;4.7;;;1.8;;
73421;SDS011;61637;47.760;-122.022;2022-07-10T05:56:01;5.5;;;1.6;;
73421;SDS011;61637;47.760;-122.022;2022-07-10T05:58:00;5.7;;;1.5;;
73421;SDS011;61637;47.760;-122.022;2022-07-10T06:00:02;4.6;;;1.6;;
73421;SDS011;61637;47.760;-122.022;2022-07-10T06:02:00;4.8;;;1.7;;
73421;SDS011;61637;47.760;-122.022;2022-07-10T06:04:02;6.0;;;1.7;;
73421;SDS011;61637;47.760;-122.022;2022-07-10T06:06:01;5.9;;;1.5;;
73421;SDS011;61637;47.760;-122.022;2022-07-10T06:08:00;7.8;;;1.5;;
73421;SDS011;61637;47.760;-122.022;2022-07-10T06:10:02;5.3;;;1.5;;
73421;SDS011;61637;47.760;-122.022;2022-07-10T06:12:00;5.5;;;1.5;;
73421;SDS011;61637;47.760;-122.022;2022-07-10T06:14:01;7.5;;;1.7;;
73421;SDS011;61637;47.760;-122.022;2022-07-10T06:16:01;4.8;;;1.4;;
73421;SDS011;61637;47.760;-122.022;2022-07-10T06:18:00;4.6;;;1.5;;
73421;SDS011;61637;47.760;-122.022;2022-07-10T06:20:01;6.3;;;1.5;;
73421;SDS011;61637;47.760;-122.022;2022-07-10T06:22:01;6.7;;;1.5;;
73421;SDS011;61637;47.760;-122.022;2022-07-10T06:24:01;5.0;;;1.5;;
73421;SDS011;61637;47.760;-122.022;2022-07-10T06:26:00;4.5;;;1.3;;
73421;SDS011;61637;47.760;-122.022;2022-07-10T06:28:01;4.2;;;1.3;;
73421;SDS011;61637;47.760;-122.022;2022-07-10T06:30:01;6.8;;;1.4;;
73421;SDS011;61637;47.760;-122.022;2022-07-10T06:32:01;6.4;;;1.4;;
73421;SDS011;61637;47.760;-122.022;2022-07-10T06:34:00;5.5;;;1.4;;
73421;SDS011;61637;47.760;-122.022;2022-07-10T06:36:01;6.2;;;1.7;;
73421;SDS011;61637;47.760;-122.022;2022-07-10T06:38:01;6.5;;;1.5;;
73421;SDS011;61637;47.760;-122.022;2022-07-10T06:40:01;4.6;;;1.6;;
73421;SDS011;61637;47.760;-122.022;2022-07-10T06:42:00;5.1;;;1.5;;
73421;SDS011;61637;47.760;-122.022;2022-07-10T06:44:01;3.8;;;1.4;;
73421;SDS011;61637;47.760;-122.022;2022-07-10T06:46:01;6.8;;;1.5;;
73421;SDS011;61637;47.760;-122.022;2022-07-10T06:48:00;5.2;;;1.3;;
73421;SDS011;61637;47.760;-122.022;2022-07-10T06:50:01;5.2;;;1.5;;
73421;SDS011;61637;47.760;-122.022;2022-07-10T06:52:01;5.0;;;1.4;;
73421;SDS011;61637;47.760;-122.022;2022-07-10T06:54:00;6.8;;;1.5;;
73421;SDS011;61637;47.760;-122.022;2022-07-10T06:56:01;4.5;;;1.3;;
73421;SDS011;61637;47.760;-122.022;2022-07-10T06:58:01;6.7;;;1.6;;
73421;SDS011;61637;47.760;-122.022;2022-07-10T07:00:00;5.1;;;1.3;;
73421;SDS011;61637;47.760;-122.022;2022-07-10T07:02:01;5.3;;;1.4;;
73421;SDS011;61637;47.760;-122.022;2022-07-10T07:04:01;4.8;;;1.4;;
73421;SDS011;61637;47.760;-122.022;2022-07-10T07:06:00;4.7;;;1.6;;
73421;SDS011;61637;47.760;-122.022;2022-07-10T07:08:01;6.1;;;1.4;;
73421;SDS011;61637;47.760;-122.022;2022-07-10T07:10:01;5.3;;;1.4;;
73421;SDS011;61637;47.760;-122.022;2022-07-10T07:12:00;4.8;;;1.5;;
73421;SDS011;61637;47.760;-122.022;2022-07-10T07:14:00;5.6;;;1.3;;
73421;SDS011;61637;47.760;-122.022;2022-07-10T07:16:01;5.8;;;1.4;;
73421;SDS011;61637;47.760;-122.022;2022-07-10T07:18:00;4.7;;;1.3;;
73421;SDS011;61637;47.760;-122.022;2022-07-10T07:20:02;5.3;;;1.6;;
73421;SDS011;61637;47.760;-122.022;2022-07-10T07:22:01;4.4;;;1.4;;
73421;SDS011;61637;47.760;-122.022;2022-07-10T07:24:00;4.4;;;1.3;;
73421;SDS011;61637;47.760;-122.022;2022-07-10T07:26:00;6.2;;;1.6;;
73421;SDS011;61637;47.760;-122.022;2022-07-10T07:28:01;3.9;;;1.4;;
73421;SDS011;61637;47.760;-122.022;2022-07-10T07:30:03;4.6;;;1.3;;
73421;SDS011;61637;47.760;-122.022;2022-07-10T07:32:01;6.9;;;1.5;;
73421;SDS011;61637;47.760;-122.022;2022-07-10T07:34:00;4.3;;;1.4;;
73421;SDS011;61637;47.760;-122.022;2022-07-10T07:36:00;4.9;;;1.3;;
73421;SDS011;61637;47.760;-122.022;2022-07-10T07:38:02;6.4;;;1.6;;
73421;SDS011;61637;47.760;-122.022;2022-07-10T07:40:01;4.7;;;1.4;;
73421;SDS011;61637;47.760;-122.022;2022-07-10T07:42:00;5.8;;;1.4;;
73421;SDS011;61637;47.760;-122.022;2022-07-10T07:44:01;4.3;;;1.5;;
73421;SDS011;61637;47.760;-122.022;2022-07-10T07:46:00;5.5;;;1.4;;
73421;SDS011;61637;47.760;-122.022;2022-07-10T07:48:01;6.4;;;1.6;;
73421;SDS011;61637;47.760;-122.022;2022-07-10T07:50:02;4.5;;;1.6;;
73421;SDS011;61637;47.760;-122.022;2022-07-10T07:52:01;5.5;;;1.2;;
73421;SDS011;61637;47.760;-122.022;2022-07-10T07:54:00;8.0;;;1.6;;
73421;SDS011;61637;47.760;-122.022;2022-07-10T07:56:01;4.6;;;1.5;;
73421;SDS011;61637;47.760;-122.022;2022-07-10T07:58:02;4.4;;;1.4;;
73421;SDS011;61637;47.760;-122.022;2022-07-10T08:00:01;4.6;;;1.5;;
73421;SDS011;61637;47.760;-122.022;2022-07-10T08:02:00;6.0;;;1.4;;
73421;SDS011;61637;47.760;-122.022;2022-07-10T08:04:01;5.7;;;1.5;;
73421;SDS011;61637;47.760;-122.022;2022-07-10T08:06:01;4.1;;;1.4;;
73421;SDS011;61637;47.760;-122.022;2022-07-10T08:08:00;5.3;;;1.4;;
73421;SDS011;61637;47.760;-122.022;2022-07-10T08:10:02;4.4;;;1.3;;
73421;SDS011;61637;47.760;-122.022;2022-07-10T08:12:00;4.5;;;1.4;;
73421;SDS011;61637;47.760;-122.022;2022-07-10T08:14:00;5.1;;;1.7;;
73421;SDS011;61637;47.760;-122.022;2022-07-10T08:16:01;7.5;;;1.5;;
73421;SDS011;61637;47.760;-122.022;2022-07-10T08:18:01;5.7;;;1.6;;
73421;SDS011;61637;47.760;-122.022;2022-07-10T08:20:01;5.3;;;1.5;;
73421;SDS011;61637;47.760;-122.022;2022-07-10T08:22:00;6.7;;;2.6;;
73421;SDS011;61637;47.760;-122.022;2022-07-10T08:24:00;6.7;;;2.2;;
73421;SDS011;61637;47.760;-122.022;2022-07-10T08:26:01;8.8;;;2.3;;
73421;SDS011;61637;47.760;-122.022;2022-07-10T08:28:02;7.2;;;2.4;;
73421;SDS011;61637;47.760;-122.022;2022-07-10T08:30:01;5.8;;;2.0;;
73421;SDS011;61637;47.760;-122.022;2022-07-10T08:32:01;8.6;;;2.3;;
73421;SDS011;61637;47.760;-122.022;2022-07-10T08:34:00;6.8;;;2.5;;
73421;SDS011;61637;47.760;-122.022;2022-07-10T08:36:00;9.8;;;2.5;;
73421;SDS011;61637;47.760;-122.022;2022-07-10T08:38:01;7.5;;;2.1;;
73421;SDS011;61637;47.760;-122.022;2022-07-10T08:40:01;8.5;;;2.2;;
73421;SDS011;61637;47.760;-122.022;2022-07-10T08:42:00;9.4;;;2.1;;
73421;SDS011;61637;47.760;-122.022;2022-07-10T08:44:00;6.6;;;2.0;;
73421;SDS011;61637;47.760;-122.022;2022-07-10T08:46:01;5.9;;;2.1;;
73421;SDS011;61637;47.760;-122.022;2022-07-10T08:48:03;5.6;;;1.8;;
73421;SDS011;61637;47.760;-122.022;2022-07-10T08:50:01;7.1;;;1.6;;
73421;SDS011;61637;47.760;-122.022;2022-07-10T08:52:04;9.6;;;1.9;;
73421;SDS011;61637;47.760;-122.022;2022-07-10T08:54:01;5.5;;;1.6;;
73421;SDS011;61637;47.760;-122.022;2022-07-10T08:56:01;6.7;;;1.9;;
73421;SDS011;61637;47.760;-122.022;2022-07-10T08:58:01;6.5;;;1.7;;
73421;SDS011;61637;47.760;-122.022;2022-07-10T09:00:00;6.7;;;1.5;;
73421;SDS011;61637;47.760;-122.022;2022-07-10T09:02:00;7.1;;;1.5;;
73421;SDS011;61637;47.760;-122.022;2022-07-10T09:04:01;4.9;;;1.4;;
73421;SDS011;61637;47.760;-122.022;2022-07-10T09:06:01;8.9;;;1.7;;
73421;SDS011;61637;47.760;-122.022;2022-07-10T09:08:00;4.1;;;1.4;;
73421;SDS011;61637;47.760;-122.022;2022-07-10T09:10:05;5.8;;;1.5;;
73421;SDS011;61637;47.760;-122.022;2022-07-10T09:12:00;4.6;;;1.3;;
73421;SDS011;61637;47.760;-122.022;2022-07-10T09:14:02;5.3;;;1.5;;
73421;SDS011;61637;47.760;-122.022;2022-07-10T09:16:01;4.8;;;1.5;;
73421;SDS011;61637;47.760;-122.022;2022-07-10T09:18:03;5.3;;;1.5;;
73421;SDS011;61637;47.760;-122.022;2022-07-10T09:20:01;5.8;;;1.6;;
73421;SDS011;61637;47.760;-122.022;2022-07-10T09:22:05;4.5;;;1.6;;
73421;SDS011;61637;47.760;-122.022;2022-07-10T09:24:03;7.6;;;2.0;;
73421;SDS011;61637;47.760;-122.022;2022-07-10T09:26:04;7.5;;;2.0;;
73421;SDS011;61637;47.760;-122.022;2022-07-10T09:28:01;6.1;;;1.8;;
73421;SDS011;61637;47.760;-122.022;2022-07-10T09:30:00;7.4;;;1.7;;
73421;SDS011;61637;47.760;-122.022;2022-07-10T09:32:02;7.5;;;2.3;;
73421;SDS011;61637;47.760;-122.022;2022-07-10T09:34:01;10.4;;;2.5;;
73421;SDS011;61637;47.760;-122.022;2022-07-10T09:36:03;6.1;;;2.1;;
73421;SDS011;61637;47.760;-122.022;2022-07-10T09:38:00;7.2;;;1.9;;
73421;SDS011;61637;47.760;-122.022;2022-07-10T09:40:02;4.9;;;1.5;;
73421;SDS011;61637;47.760;-122.022;2022-07-10T09:42:00;8.0;;;1.8;;
73421;SDS011;61637;47.760;-122.022;2022-07-10T09:44:03;6.1;;;1.3;;
73421;SDS011;61637;47.760;-122.022;2022-07-10T09:46:00;4.8;;;1.6;;
73421;SDS011;61637;47.760;-122.022;2022-07-10T09:48:01;5.7;;;1.7;;
73421;SDS011;61637;47.760;-122.022;2022-07-10T09:50:00;4.7;;;1.7;;
73421;SDS011;61637;47.760;-122.022;2022-07-10T09:52:01;4.7;;;1.6;;
73421;SDS011;61637;47.760;-122.022;2022-07-10T09:54:03;5.3;;;1.7;;
73421;SDS011;61637;47.760;-122.022;2022-07-10T09:56:01;7.2;;;2.0;;
73421;SDS011;61637;47.760;-122.022;2022-07-10T09:58:02;5.4;;;1.5;;
73421;SDS011;61637;47.760;-122.022;2022-07-10T10:00:01;5.1;;;1.6;;
73421;SDS011;61637;47.760;-122.022;2022-07-10T10:02:01;5.3;;;1.7;;
73421;SDS011;61637;47.760;-122.022;2022-07-10T10:04:03;6.0;;;1.7;;
73421;SDS011;61637;47.760;-122.022;2022-07-10T10:06:04;5.7;;;1.6;;
73421;SDS011;61637;47.760;-122.022;2022-07-10T10:08:04;4.6;;;1.6;;
73421;SDS011;61637;47.760;-122.022;2022-07-10T10:10:01;4.6;;;1.6;;
73421;SDS011;61637;47.760;-122.022;2022-07-10T10:12:07;5.8;;;1.6;;
73421;SDS011;61637;47.760;-122.022;2022-07-10T10:14:01;5.8;;;1.6;;
73421;SDS011;61637;47.760;-122.022;2022-07-10T10:16:02;5.9;;;1.9;;
73421;SDS011;61637;47.760;-122.022;2022-07-10T10:18:02;5.8;;;1.6;;
73421;SDS011;61637;47.760;-122.022;2022-07-10T10:20:02;5.2;;;1.7;;
73421;SDS011;61637;47.760;-122.022;2022-07-10T10:22:01;5.6;;;1.8;;
73421;SDS011;61637;47.760;-122.022;2022-07-10T10:24:02;7.4;;;1.6;;
73421;SDS011;61637;47.760;-122.022;2022-07-10T10:26:01;4.3;;;1.7;;
73421;SDS011;61637;47.760;-122.022;2022-07-10T10:28:04;4.0;;;1.6;;
73421;SDS011;61637;47.760;-122.022;2022-07-10T10:30:02;5.0;;;1.6;;
73421;SDS011;61637;47.760;-122.022;2022-07-10T10:32:02;6.6;;;1.6;;
73421;SDS011;61637;47.760;-122.022;2022-07-10T10:34:00;6.0;;;1.6;;
73421;SDS011;61637;47.760;-122.022;2022-07-10T10:36:01;5.4;;;1.7;;
73421;SDS011;61637;47.760;-122.022;2022-07-10T10:38:01;4.3;;;1.8;;
73421;SDS011;61637;47.760;-122.022;2022-07-10T10:40:02;5.3;;;1.5;;
73421;SDS011;61637;47.760;-122.022;2022-07-10T10:42:00;8.8;;;1.5;;
73421;SDS011;61637;47.760;-122.022;2022-07-10T10:48:04;5.7;;;1.5;;
73421;SDS011;61637;47.760;-122.022;2022-07-10T10:50:00;3.7;;;1.4;;
73421;SDS011;61637;47.760;-122.022;2022-07-10T10:52:03;4.8;;;1.5;;
73421;SDS011;61637;47.760;-122.022;2022-07-10T10:54:04;6.3;;;1.8;;
73421;SDS011;61637;47.760;-122.022;2022-07-10T10:58:12;6.8;;;1.6;;
73421;SDS011;61637;47.760;-122.022;2022-07-10T11:00:00;5.7;;;1.7;;
73421;SDS011;61637;47.760;-122.022;2022-07-10T11:04:14;4.9;;;1.7;;
73421;SDS011;61637;47.760;-122.022;2022-07-10T11:06:00;5.1;;;1.7;;
73421;SDS011;61637;47.760;-122.022;2022-07-10T11:08:02;6.6;;;1.6;;
73421;SDS011;61637;47.760;-122.022;2022-07-10T11:12:03;5.6;;;1.6;;
73421;SDS011;61637;47.760;-122.022;2022-07-10T11:14:03;4.3;;;1.6;;
73421;SDS011;61637;47.760;-122.022;2022-07-10T11:16:01;6.5;;;1.7;;
73421;SDS011;61637;47.760;-122.022;2022-07-10T11:18:04;4.8;;;1.6;;
73421;SDS011;61637;47.760;-122.022;2022-07-10T11:20:02;4.3;;;1.6;;
73421;SDS011;61637;47.760;-122.022;2022-07-10T11:22:24;5.2;;;1.5;;
73421;SDS011;61637;47.760;-122.022;2022-07-10T11:24:09;11.2;;;1.8;;
73421;SDS011;61637;47.760;-122.022;2022-07-10T11:26:04;6.0;;;1.6;;
73421;SDS011;61637;47.760;-122.022;2022-07-10T11:28:05;5.1;;;1.5;;
73421;SDS011;61637;47.760;-122.022;2022-07-10T11:30:01;6.4;;;1.8;;
73421;SDS011;61637;47.760;-122.022;2022-07-10T11:32:00;6.3;;;1.7;;
73421;SDS011;61637;47.760;-122.022;2022-07-10T11:34:00;5.6;;;1.7;;
73421;SDS011;61637;47.760;-122.022;2022-07-10T11:36:09;4.6;;;1.5;;
73421;SDS011;61637;47.760;-122.022;2022-07-10T11:38:00;5.0;;;1.7;;
73421;SDS011;61637;47.760;-122.022;2022-07-10T11:40:09;5.2;;;1.7;;
73421;SDS011;61637;47.760;-122.022;2022-07-10T11:42:00;5.5;;;1.8;;
73421;SDS011;61637;47.760;-122.022;2022-07-10T11:44:02;4.2;;;1.6;;
73421;SDS011;61637;47.760;-122.022;2022-07-10T11:46:00;4.3;;;1.5;;
73421;SDS011;61637;47.760;-122.022;2022-07-10T11:48:00;8.3;;;1.6;;
73421;SDS011;61637;47.760;-122.022;2022-07-10T11:50:00;6.1;;;1.6;;
73421;SDS011;61637;47.760;-122.022;2022-07-10T11:52:03;6.0;;;1.8;;
73421;SDS011;61637;47.760;-122.022;2022-07-10T11:54:03;5.0;;;1.7;;
73421;SDS011;61637;47.760;-122.022;2022-07-10T11:56:00;5.7;;;1.6;;
73421;SDS011;61637;47.760;-122.022;2022-07-10T11:58:00;5.3;;;1.8;;
73421;SDS011;61637;47.760;-122.022;2022-07-10T12:00:00;6.1;;;1.7;;